createdAt,value
2018-08-27T00:01:31.075Z,16.36
2018-08-27T00:04:00.663Z,16.36
2018-08-27T00:06:29.308Z,16.36
2018-08-27T00:08:58.597Z,16.39
2018-08-27T00:11:27.335Z,16.35
2018-08-27T00:13:57.438Z,16.31
2018-08-27T00:16:26.237Z,16.28
2018-08-27T00:18:54.868Z,16.16
2018-08-27T00:21:27.969Z,16.13
2018-08-27T00:23:56.828Z,16.12
2018-08-27T00:26:26.820Z,16.09
2018-08-27T00:28:56.897Z,16.12
2018-08-27T00:31:25.781Z,16.17
2018-08-27T00:33:59.395Z,16.22
2018-08-27T00:36:30.013Z,16.20
2018-08-27T00:39:00.706Z,15.95
2018-08-27T00:41:30.097Z,15.99
2018-08-27T00:43:58.923Z,16.03
2018-08-27T00:46:27.502Z,16.06
2018-08-27T00:48:57.243Z,16.11
2018-08-27T00:51:26.881Z,16.13
2018-08-27T00:53:55.494Z,16.16
2018-08-27T00:56:24.076Z,16.14
2018-08-27T00:58:53.181Z,16.22
2018-08-27T01:01:21.814Z,16.25
2018-08-27T01:03:52.195Z,16.18
2018-08-27T01:06:21.740Z,16.14
2018-08-27T01:08:50.889Z,16.05
2018-08-27T01:11:24.748Z,16.08
2018-08-27T01:13:54.365Z,16.16
2018-08-27T01:16:23.819Z,16.20
2018-08-27T01:18:53.527Z,16.20
2018-08-27T01:21:23.181Z,16.12
2018-08-27T01:23:51.996Z,16.03
2018-08-27T01:26:23.954Z,16.01
2018-08-27T01:28:53.517Z,15.89
2018-08-27T01:31:23.291Z,15.92
2018-08-27T01:33:53.203Z,15.94
2018-08-27T01:36:26.217Z,15.99
2018-08-27T01:38:55.959Z,16.02
2018-08-27T01:41:26.113Z,15.99
2018-08-27T01:43:55.085Z,16.01
2018-08-27T01:46:24.130Z,15.95
2018-08-27T01:48:54.117Z,15.95
2018-08-27T01:51:24.803Z,15.97
2018-08-27T01:53:53.963Z,16.00
2018-08-27T01:56:24.053Z,16.04
2018-08-27T01:58:53.941Z,16.00
2018-08-27T02:01:23.388Z,16.00
2018-08-27T02:03:52.977Z,16.04
2018-08-27T02:06:23.558Z,16.08
2018-08-27T02:08:54.731Z,16.11
2018-08-27T02:11:23.692Z,16.14
2018-08-27T02:13:53.117Z,16.13
2018-08-27T02:16:22.436Z,16.11
2018-08-27T02:18:52.084Z,16.11
2018-08-27T02:21:21.430Z,16.11
2018-08-27T02:23:51.196Z,16.11
2018-08-27T02:26:21.125Z,16.10
2018-08-27T02:28:52.653Z,16.20
2018-08-27T02:31:22.397Z,16.26
2018-08-27T02:33:52.183Z,16.25
2018-08-27T02:36:22.489Z,16.25
2018-08-27T02:38:51.943Z,16.17
2018-08-27T02:41:20.783Z,16.13
2018-08-27T02:43:50.511Z,16.08
2018-08-27T02:46:19.925Z,15.98
2018-08-27T02:48:49.283Z,15.95
2018-08-27T02:51:20.199Z,15.93
2018-08-27T02:53:49.345Z,15.91
2018-08-27T02:56:17.970Z,15.95
2018-08-27T02:58:46.960Z,15.89
2018-08-27T03:01:15.784Z,15.77
2018-08-27T03:03:44.397Z,15.68
2018-08-27T03:06:13.222Z,15.72
2018-08-27T03:08:42.709Z,15.82
2018-08-27T03:11:12.112Z,15.78
2018-08-27T03:13:40.907Z,15.86
2018-08-27T03:16:09.577Z,15.87
2018-08-27T03:18:41.787Z,15.83
2018-08-27T03:21:11.303Z,15.84
2018-08-27T03:23:41.948Z,15.83
2018-08-27T03:26:11.692Z,15.78
2018-08-27T03:28:42.971Z,15.74
2018-08-27T03:31:11.673Z,15.72
2018-08-27T03:33:44.142Z,15.78
2018-08-27T03:36:13.204Z,15.78
2018-08-27T03:38:43.854Z,15.86
2018-08-27T03:41:14.691Z,15.89
2018-08-27T03:43:43.957Z,15.88
2018-08-27T03:46:14.760Z,15.87
2018-08-27T03:48:44.970Z,15.87
2018-08-27T03:51:15.841Z,15.88
2018-08-27T03:53:44.922Z,15.88
2018-08-27T03:56:14.188Z,15.87
2018-08-27T03:58:44.292Z,15.85
2018-08-27T04:01:13.919Z,15.77
2018-08-27T04:03:45.046Z,15.77
2018-08-27T04:06:13.772Z,15.76
2018-08-27T04:08:43.074Z,15.79
2018-08-27T04:11:11.751Z,15.77
2018-08-27T04:13:40.346Z,15.75
2018-08-27T04:16:10.471Z,15.69
2018-08-27T04:18:39.356Z,15.70
2018-08-27T04:21:09.541Z,15.69
2018-08-27T04:23:38.417Z,15.67
2018-08-27T04:26:07.983Z,15.64
2018-08-27T04:28:36.895Z,15.41
2018-08-27T04:31:07.289Z,15.63
2018-08-27T04:33:36.594Z,15.63
2018-08-27T04:36:06.080Z,15.69
2018-08-27T04:38:34.768Z,15.69
2018-08-27T04:41:04.507Z,15.70
2018-08-27T04:43:34.716Z,15.71
2018-08-27T04:46:04.253Z,15.76
2018-08-27T04:48:34.775Z,15.18
2018-08-27T04:51:07.976Z,15.81
2018-08-27T04:53:38.729Z,15.88
2018-08-27T04:56:09.319Z,15.87
2018-08-27T04:58:41.788Z,15.86
2018-08-27T05:01:11.402Z,15.92
2018-08-27T05:03:41.383Z,15.93
2018-08-27T05:06:10.308Z,15.87
2018-08-27T05:08:39.249Z,15.88
2018-08-27T05:11:12.172Z,15.87
2018-08-27T05:13:40.865Z,15.92
2018-08-27T05:16:09.480Z,15.98
2018-08-27T05:18:38.132Z,16.00
2018-08-27T05:21:07.574Z,16.05
2018-08-27T05:23:36.235Z,16.12
2018-08-27T05:26:05.556Z,16.18
2018-08-27T05:28:34.177Z,16.29
2018-08-27T05:31:08.293Z,16.33
2018-08-27T05:33:36.915Z,16.38
2018-08-27T05:36:05.933Z,16.50
2018-08-27T05:38:36.270Z,16.61
2018-08-27T05:41:06.791Z,16.75
2018-08-27T05:43:35.552Z,17.21
2018-08-27T05:46:06.733Z,17.90
2018-08-27T05:48:35.892Z,18.36
2018-08-27T05:51:05.115Z,18.22
2018-08-27T05:53:34.507Z,17.95
2018-08-27T05:56:08.116Z,17.78
2018-08-27T05:58:36.770Z,17.62
2018-08-27T06:01:06.639Z,17.62
2018-08-27T06:03:35.517Z,17.68
2018-08-27T06:06:05.065Z,17.71
2018-08-27T06:08:34.376Z,17.71
2018-08-27T06:11:03.208Z,17.76
2018-08-27T06:13:31.940Z,17.78
2018-08-27T06:16:01.752Z,17.77
2018-08-27T06:18:31.549Z,17.79
2018-08-27T06:21:01.729Z,17.81
2018-08-27T06:23:31.547Z,17.84
2018-08-27T06:26:00.381Z,17.91
2018-08-27T06:28:30.677Z,18.00
2018-08-27T06:31:01.871Z,18.10
2018-08-27T06:33:30.733Z,18.17
2018-08-27T06:36:00.247Z,18.23
2018-08-27T06:38:30.718Z,18.12
2018-08-27T06:41:00.393Z,18.16
2018-08-27T06:43:29.914Z,18.11
2018-08-27T06:46:00.412Z,18.01
2018-08-27T06:48:29.116Z,18.27
2018-08-27T06:51:00.382Z,18.48
2018-08-27T06:53:30.968Z,18.74
2018-08-27T06:55:59.758Z,19.02
2018-08-27T06:58:30.246Z,19.07
2018-08-27T07:01:00.374Z,19.25
2018-08-27T07:03:30.985Z,19.56
2018-08-27T07:06:01.709Z,19.73
2018-08-27T07:08:30.980Z,19.72
2018-08-27T07:11:00.541Z,19.71
2018-08-27T07:13:30.754Z,19.56
2018-08-27T07:16:00.415Z,19.73
2018-08-27T07:18:31.644Z,19.61
2018-08-27T07:21:02.579Z,19.84
2018-08-27T07:23:31.880Z,19.70
2018-08-27T07:26:00.685Z,19.74
2018-08-27T07:28:30.259Z,20.01
2018-08-27T07:31:01.561Z,20.57
2018-08-27T07:33:35.290Z,20.69
2018-08-27T07:36:04.628Z,20.44
2018-08-27T07:38:35.145Z,20.41
2018-08-27T07:41:04.500Z,20.41
2018-08-27T07:43:34.745Z,20.29
2018-08-27T07:46:04.924Z,20.18
2018-08-27T07:48:34.193Z,20.19
2018-08-27T07:51:04.392Z,20.12
2018-08-27T07:53:35.343Z,20.18
2018-08-27T07:56:05.606Z,20.24
2018-08-27T07:58:35.393Z,20.23
2018-08-27T08:01:05.128Z,20.30
2018-08-27T08:03:33.986Z,20.15
2018-08-27T08:06:05.263Z,20.29
2018-08-27T08:08:35.025Z,20.39
2018-08-27T08:11:06.218Z,20.36
2018-08-27T08:13:35.514Z,20.25
2018-08-27T08:16:05.229Z,20.32
2018-08-27T08:18:35.727Z,20.55
2018-08-27T08:21:04.903Z,20.72
2018-08-27T08:23:34.747Z,20.88
2018-08-27T08:26:07.073Z,21.04
2018-08-27T08:28:43.475Z,21.07
2018-08-27T08:31:13.125Z,20.97
2018-08-27T08:33:42.414Z,20.73
2018-08-27T08:36:11.195Z,20.93
2018-08-27T08:38:40.853Z,21.09
2018-08-27T08:41:10.030Z,21.16
2018-08-27T08:43:40.529Z,21.30
2018-08-27T08:46:09.750Z,21.22
2018-08-27T08:48:39.135Z,21.34
2018-08-27T08:51:08.277Z,21.32
2018-08-27T08:53:37.746Z,21.38
2018-08-27T08:56:09.278Z,21.56
2018-08-27T08:58:39.416Z,21.62
2018-08-27T09:01:09.987Z,21.48
2018-08-27T09:03:38.911Z,21.46
2018-08-27T09:06:09.708Z,21.17
2018-08-27T09:08:41.253Z,21.33
2018-08-27T09:11:12.376Z,21.26
2018-08-27T09:13:41.147Z,21.16
2018-08-27T09:16:11.525Z,21.32
2018-08-27T09:18:41.169Z,21.45
2018-08-27T09:21:11.472Z,21.52
2018-08-27T09:23:42.235Z,21.71
2018-08-27T09:26:12.854Z,21.89
2018-08-27T09:28:42.833Z,21.98
2018-08-27T09:31:11.633Z,22.03
2018-08-27T09:33:41.136Z,22.03
2018-08-27T09:36:10.313Z,22.00
2018-08-27T09:38:42.063Z,22.14
2018-08-27T09:41:12.489Z,21.87
2018-08-27T09:43:43.348Z,21.59
2018-08-27T09:46:12.178Z,21.93
2018-08-27T09:48:43.922Z,22.03
2018-08-27T09:51:19.149Z,22.05
2018-08-27T09:53:49.144Z,22.18
2018-08-27T09:56:19.735Z,22.03
2018-08-27T09:58:50.943Z,21.99
2018-08-27T10:01:25.732Z,22.08
2018-08-27T10:03:57.512Z,22.36
2018-08-27T10:06:27.575Z,22.34
2018-08-27T10:08:57.035Z,22.21
2018-08-27T10:11:28.395Z,22.31
2018-08-27T10:13:59.289Z,22.39
2018-08-27T10:16:30.133Z,22.50
2018-08-27T10:18:59.702Z,22.43
2018-08-27T10:21:29.481Z,22.31
2018-08-27T10:24:01.519Z,22.38
2018-08-27T10:26:30.360Z,22.46
2018-08-27T10:28:59.731Z,21.61
2018-08-27T10:31:31.219Z,22.48
2018-08-27T10:34:00.249Z,22.64
2018-08-27T10:36:30.347Z,22.68
2018-08-27T10:39:05.690Z,22.64
2018-08-27T10:41:35.486Z,22.76
2018-08-27T10:44:04.828Z,22.95
2018-08-27T10:46:33.564Z,23.11
2018-08-27T10:49:02.575Z,23.18
2018-08-27T10:51:32.122Z,23.19
2018-08-27T10:54:01.626Z,23.08
2018-08-27T10:56:30.989Z,23.09
2018-08-27T10:59:04.051Z,23.23
2018-08-27T11:01:33.534Z,23.20
2018-08-27T11:04:03.656Z,23.25
2018-08-27T11:06:32.546Z,23.43
2018-08-27T11:09:02.909Z,23.49
2018-08-27T11:11:33.220Z,23.60
2018-08-27T11:14:03.111Z,23.65
2018-08-27T11:16:33.186Z,23.77
2018-08-27T11:19:02.585Z,23.81
2018-08-27T11:21:31.849Z,23.74
2018-08-27T11:24:05.105Z,23.76
2018-08-27T11:26:38.060Z,23.78
2018-08-27T11:29:12.251Z,23.94
2018-08-27T11:31:42.534Z,24.14
2018-08-27T11:34:12.390Z,24.28
2018-08-27T11:36:42.743Z,24.52
2018-08-27T11:39:13.472Z,24.51
2018-08-27T11:41:42.801Z,24.37
2018-08-27T11:44:11.563Z,24.27
2018-08-27T11:46:40.410Z,24.28
2018-08-27T11:49:09.291Z,24.51
2018-08-27T11:51:38.787Z,25.00
2018-08-27T11:54:08.688Z,25.26
2018-08-27T11:56:37.788Z,25.56
2018-08-27T11:59:07.356Z,25.84
2018-08-27T12:01:36.961Z,25.86
2018-08-27T12:04:06.665Z,26.23
2018-08-27T12:06:36.016Z,26.01
2018-08-27T12:09:07.689Z,26.47
2018-08-27T12:11:37.097Z,26.45
2018-08-27T12:14:06.647Z,26.28
2018-08-27T12:16:37.712Z,26.43
2018-08-27T12:19:07.785Z,26.33
2018-08-27T12:21:37.941Z,26.15
2018-08-27T12:24:08.852Z,26.19
2018-08-27T12:26:39.098Z,26.25
2018-08-27T12:29:09.859Z,26.24
2018-08-27T12:31:39.353Z,26.78
2018-08-27T12:34:09.066Z,27.15
2018-08-27T12:36:39.436Z,26.96
2018-08-27T12:39:10.055Z,27.02
2018-08-27T12:41:38.867Z,27.02
2018-08-27T12:44:09.001Z,26.97
2018-08-27T12:46:37.822Z,27.16
2018-08-27T12:49:07.558Z,27.19
2018-08-27T12:51:37.801Z,27.51
2018-08-27T12:54:08.340Z,27.65
2018-08-27T12:56:38.120Z,27.24
2018-08-27T12:59:09.710Z,27.58
2018-08-27T13:01:38.898Z,27.22
2018-08-27T13:04:12.383Z,26.13
2018-08-27T13:06:44.038Z,26.72
2018-08-27T13:09:14.024Z,26.74
2018-08-27T13:11:44.625Z,27.20
2018-08-27T13:14:15.260Z,27.44
2018-08-27T13:16:44.866Z,27.69
2018-08-27T13:19:14.195Z,27.88
2018-08-27T13:21:43.823Z,28.20
2018-08-27T13:24:14.309Z,29.21
2018-08-27T13:26:43.040Z,29.41
2018-08-27T13:29:12.400Z,29.08
2018-08-27T13:31:41.363Z,28.59
2018-08-27T13:34:11.080Z,28.01
2018-08-27T13:36:41.507Z,27.89
2018-08-27T13:39:11.640Z,27.99
2018-08-27T13:41:41.150Z,27.20
2018-08-27T13:44:10.360Z,27.50
2018-08-27T13:46:40.211Z,27.13
2018-08-27T13:49:10.150Z,27.23
2018-08-27T13:51:46.370Z,27.10
2018-08-27T13:54:15.953Z,26.73
2018-08-27T13:56:46.102Z,26.30
2018-08-27T13:59:16.561Z,26.73
2018-08-27T14:01:45.870Z,26.70
2018-08-27T14:04:16.464Z,26.66
2018-08-27T14:06:45.805Z,27.08
2018-08-27T14:09:15.980Z,26.43
2018-08-27T14:11:45.690Z,25.75
2018-08-27T14:14:17.128Z,25.54
2018-08-27T14:16:46.947Z,25.79
2018-08-27T14:19:17.313Z,25.96
2018-08-27T14:21:47.031Z,26.47
2018-08-27T14:24:17.558Z,26.90
2018-08-27T14:26:46.926Z,27.63
2018-08-27T14:29:16.307Z,27.76
2018-08-27T14:31:51.749Z,27.37
2018-08-27T14:34:22.262Z,27.85
2018-08-27T14:36:51.590Z,28.35
2018-08-27T14:39:21.519Z,28.54
2018-08-27T14:41:51.246Z,28.96
2018-08-27T14:44:20.342Z,29.10
2018-08-27T14:46:49.945Z,29.28
2018-08-27T14:49:18.791Z,28.81
2018-08-27T14:51:47.821Z,28.64
2018-08-27T14:54:17.452Z,28.33
2018-08-27T14:56:47.707Z,28.19
2018-08-27T14:59:16.656Z,28.37
2018-08-27T15:01:48.032Z,28.24
2018-08-27T15:04:18.008Z,27.98
2018-08-27T15:06:47.241Z,27.45
2018-08-27T15:09:17.023Z,26.93
2018-08-27T15:11:46.301Z,27.19
2018-08-27T15:14:17.836Z,27.37
2018-08-27T15:16:48.566Z,27.34
2018-08-27T15:19:17.190Z,27.62
2018-08-27T15:21:46.150Z,27.64
2018-08-27T15:24:16.121Z,27.48
2018-08-27T15:26:52.614Z,27.57
2018-08-27T15:29:22.690Z,27.35
2018-08-27T15:31:52.396Z,27.55
2018-08-27T15:34:23.251Z,27.14
2018-08-27T15:36:52.549Z,26.73
2018-08-27T15:39:21.969Z,26.71
2018-08-27T15:41:50.964Z,26.85
2018-08-27T15:44:19.911Z,26.86
2018-08-27T15:46:50.448Z,26.89
2018-08-27T15:49:21.066Z,26.75
2018-08-27T15:51:56.322Z,26.55
2018-08-27T15:54:27.747Z,26.44
2018-08-27T15:56:58.445Z,26.36
2018-08-27T15:59:29.760Z,26.19
2018-08-27T16:01:59.449Z,25.79
2018-08-27T16:04:29.529Z,25.72
2018-08-27T16:06:58.399Z,25.63
2018-08-27T16:09:27.437Z,25.61
2018-08-27T16:11:57.254Z,25.81
2018-08-27T16:14:27.152Z,25.73
2018-08-27T16:16:57.161Z,25.34
2018-08-27T16:19:26.277Z,25.39
2018-08-27T16:21:56.100Z,25.52
2018-08-27T16:24:25.938Z,25.43
2018-08-27T16:26:55.639Z,25.18
2018-08-27T16:29:25.575Z,25.26
2018-08-27T16:31:54.809Z,25.18
2018-08-27T16:34:25.329Z,25.03
2018-08-27T16:36:54.205Z,25.04
2018-08-27T16:39:23.836Z,25.22
2018-08-27T16:41:52.493Z,24.99
2018-08-27T16:44:22.852Z,25.11
2018-08-27T16:46:51.974Z,25.15
2018-08-27T16:49:20.823Z,25.14
2018-08-27T16:51:49.447Z,25.04
2018-08-27T16:54:19.158Z,24.91
2018-08-27T16:56:48.222Z,24.59
2018-08-27T16:59:17.017Z,24.62
2018-08-27T17:01:47.426Z,24.62
2018-08-27T17:04:16.323Z,24.62
2018-08-27T17:06:45.212Z,24.55
2018-08-27T17:09:14.023Z,24.62
2018-08-27T17:11:43.659Z,24.65
2018-08-27T17:14:13.136Z,24.65
2018-08-27T17:16:41.825Z,24.61
2018-08-27T17:19:11.220Z,24.66
2018-08-27T17:21:39.968Z,24.80
2018-08-27T17:24:09.658Z,24.88
2018-08-27T17:26:38.783Z,24.88
2018-08-27T17:29:07.689Z,24.93
2018-08-27T17:31:38.210Z,24.88
2018-08-27T17:34:07.276Z,24.85
2018-08-27T17:36:38.559Z,24.90
2018-08-27T17:39:11.890Z,24.83
2018-08-27T17:41:41.640Z,24.77
2018-08-27T17:44:11.870Z,24.72
2018-08-27T17:46:41.991Z,24.70
2018-08-27T17:49:11.342Z,24.70
2018-08-27T17:51:40.037Z,24.72
2018-08-27T17:54:08.739Z,24.72
2018-08-27T17:56:37.924Z,24.67
2018-08-27T17:59:07.949Z,24.53
2018-08-27T18:01:37.331Z,24.49
2018-08-27T18:04:06.362Z,24.49
2018-08-27T18:06:36.207Z,24.52
2018-08-27T18:09:05.549Z,24.50
2018-08-27T18:11:35.499Z,24.55
2018-08-27T18:14:04.823Z,24.59
2018-08-27T18:16:34.337Z,24.62
2018-08-27T18:19:03.345Z,24.54
2018-08-27T18:21:32.702Z,24.53
2018-08-27T18:24:02.107Z,24.57
2018-08-27T18:26:33.334Z,24.53
2018-08-27T18:29:02.997Z,24.52
2018-08-27T18:31:32.450Z,24.44
2018-08-27T18:34:01.973Z,24.22
2018-08-27T18:36:31.669Z,24.11
2018-08-27T18:39:01.905Z,23.94
2018-08-27T18:41:31.536Z,23.98
2018-08-27T18:44:05.870Z,24.06
2018-08-27T18:46:35.471Z,24.00
2018-08-27T18:49:05.433Z,24.10
2018-08-27T18:51:35.963Z,24.16
2018-08-27T18:54:04.923Z,24.18
2018-08-27T18:56:35.279Z,24.12
2018-08-27T18:59:05.014Z,24.08
2018-08-27T19:01:40.731Z,24.09
2018-08-27T19:04:10.342Z,24.15
2018-08-27T19:06:39.590Z,24.04
2018-08-27T19:09:10.468Z,23.89
2018-08-27T19:11:39.553Z,23.97
2018-08-27T19:14:10.189Z,23.94
2018-08-27T19:16:40.660Z,23.87
2018-08-27T19:19:10.473Z,23.84
2018-08-27T19:21:39.744Z,23.75
2018-08-27T19:24:09.598Z,23.62
2018-08-27T19:26:38.716Z,23.61
2018-08-27T19:29:07.932Z,23.63
2018-08-27T19:31:39.129Z,23.66
2018-08-27T19:34:08.453Z,23.61
2018-08-27T19:36:37.484Z,23.60
2018-08-27T19:39:09.508Z,23.68
2018-08-27T19:41:38.800Z,23.62
2018-08-27T19:44:08.017Z,23.61
2018-08-27T19:46:38.184Z,23.58
2018-08-27T19:49:07.872Z,23.56
2018-08-27T19:51:36.830Z,23.55
2018-08-27T19:54:06.033Z,23.61
2018-08-27T19:56:35.535Z,23.60
2018-08-27T19:59:11.127Z,23.63
2018-08-27T20:01:41.435Z,23.65
2018-08-27T20:04:11.470Z,23.57
2018-08-27T20:06:40.403Z,23.50
2018-08-27T20:09:09.222Z,23.50
2018-08-27T20:11:39.070Z,23.48
2018-08-27T20:14:08.241Z,23.52
2018-08-27T20:16:38.015Z,23.45
2018-08-27T20:19:07.044Z,23.45
2018-08-27T20:21:36.430Z,23.42
2018-08-27T20:24:07.427Z,23.21
2018-08-27T20:26:37.054Z,23.28
2018-08-27T20:29:06.768Z,23.20
2018-08-27T20:31:35.562Z,23.13
2018-08-27T20:34:04.225Z,23.13
2018-08-27T20:36:33.060Z,23.13
